sensor_id;sensor_type;location;lat;lon;timestamp;P1;durP1;ratioP1;P2;durP2;ratioP2
18411;SDS011;27097;51.738;19.472;2022-09-09T00:00:22;12.02;;;7.80;;
18411;SDS011;27097;51.738;19.472;2022-09-09T00:02:52;14.65;;;8.05;;
18411;SDS011;27097;51.738;19.472;2022-09-09T00:05:27;17.45;;;8.85;;
18411;SDS011;27097;51.738;19.472;2022-09-09T00:08:02;13.82;;;7.72;;
18411;SDS011;27097;51.738;19.472;2022-09-09T00:10:31;18.52;;;9.07;;
18411;SDS011;27097;51.738;19.472;2022-09-09T00:13:06;15.00;;;8.23;;
18411;SDS011;27097;51.738;19.472;2022-09-09T00:15:43;19.17;;;7.97;;
18411;SDS011;27097;51.738;19.472;2022-09-09T00:18:21;12.65;;;7.95;;
18411;SDS011;27097;51.738;19.472;2022-09-09T00:20:53;16.42;;;8.05;;
18411;SDS011;27097;51.738;19.472;2022-09-09T00:23:27;12.50;;;7.57;;
18411;SDS011;27097;51.738;19.472;2022-09-09T00:25:58;12.60;;;7.90;;
18411;SDS011;27097;51.738;19.472;2022-09-09T00:28:30;16.95;;;8.27;;
18411;SDS011;27097;51.738;19.472;2022-09-09T00:31:04;14.45;;;7.78;;
18411;SDS011;27097;51.738;19.472;2022-09-09T00:33:37;13.98;;;7.60;;
18411;SDS011;27097;51.738;19.472;2022-09-09T00:36:07;11.65;;;7.15;;
18411;SDS011;27097;51.738;19.472;2022-09-09T00:38:42;13.82;;;7.53;;
18411;SDS011;27097;51.738;19.472;2022-09-09T00:41:14;12.35;;;7.75;;
18411;SDS011;27097;51.738;19.472;2022-09-09T00:43:49;12.48;;;7.55;;
18411;SDS011;27097;51.738;19.472;2022-09-09T00:49:23;11.93;;;7.65;;
18411;SDS011;27097;51.738;19.472;2022-09-09T00:52:03;14.70;;;8.13;;
18411;SDS011;27097;51.738;19.472;2022-09-09T00:54:44;14.13;;;7.90;;
18411;SDS011;27097;51.738;19.472;2022-09-09T00:57:23;12.60;;;7.78;;
18411;SDS011;27097;51.738;19.472;2022-09-09T00:59:56;13.07;;;7.57;;
18411;SDS011;27097;51.738;19.472;2022-09-09T01:02:31;12.13;;;7.75;;
18411;SDS011;27097;51.738;19.472;2022-09-09T01:05:07;12.27;;;7.50;;
18411;SDS011;27097;51.738;19.472;2022-09-09T01:07:40;14.05;;;7.68;;
18411;SDS011;27097;51.738;19.472;2022-09-09T01:10:17;16.77;;;7.95;;
18411;SDS011;27097;51.738;19.472;2022-09-09T01:12:52;12.30;;;8.00;;
18411;SDS011;27097;51.738;19.472;2022-09-09T01:15:22;13.02;;;7.45;;
18411;SDS011;27097;51.738;19.472;2022-09-09T01:17:55;11.13;;;7.82;;
18411;SDS011;27097;51.738;19.472;2022-09-09T01:20:29;13.98;;;7.88;;
18411;SDS011;27097;51.738;19.472;2022-09-09T01:26:07;15.43;;;7.90;;
18411;SDS011;27097;51.738;19.472;2022-09-09T01:28:45;14.43;;;8.27;;
18411;SDS011;27097;51.738;19.472;2022-09-09T01:31:15;17.15;;;8.48;;
18411;SDS011;27097;51.738;19.472;2022-09-09T01:33:44;12.50;;;7.90;;
18411;SDS011;27097;51.738;19.472;2022-09-09T01:36:12;14.70;;;8.57;;
18411;SDS011;27097;51.738;19.472;2022-09-09T01:38:46;12.90;;;7.80;;
18411;SDS011;27097;51.738;19.472;2022-09-09T01:41:14;15.65;;;8.30;;
18411;SDS011;27097;51.738;19.472;2022-09-09T01:43:41;14.77;;;8.35;;
18411;SDS011;27097;51.738;19.472;2022-09-09T01:46:08;15.88;;;8.82;;
18411;SDS011;27097;51.738;19.472;2022-09-09T01:48:35;16.75;;;8.13;;
18411;SDS011;27097;51.738;19.472;2022-09-09T01:51:03;15.55;;;8.40;;
18411;SDS011;27097;51.738;19.472;2022-09-09T01:53:30;15.32;;;8.27;;
18411;SDS011;27097;51.738;19.472;2022-09-09T01:56:00;17.20;;;7.95;;
18411;SDS011;27097;51.738;19.472;2022-09-09T01:58:37;13.63;;;8.65;;
18411;SDS011;27097;51.738;19.472;2022-09-09T02:01:15;14.93;;;8.80;;
18411;SDS011;27097;51.738;19.472;2022-09-09T02:03:51;12.88;;;8.55;;
18411;SDS011;27097;51.738;19.472;2022-09-09T02:06:25;14.38;;;8.90;;
18411;SDS011;27097;51.738;19.472;2022-09-09T02:08:55;13.65;;;8.10;;
18411;SDS011;27097;51.738;19.472;2022-09-09T02:11:25;14.13;;;8.55;;
18411;SDS011;27097;51.738;19.472;2022-09-09T02:13:56;15.88;;;9.02;;
18411;SDS011;27097;51.738;19.472;2022-09-09T02:16:26;18.08;;;9.18;;
18411;SDS011;27097;51.738;19.472;2022-09-09T02:19:00;17.17;;;8.70;;
18411;SDS011;27097;51.738;19.472;2022-09-09T02:21:32;14.32;;;8.50;;
18411;SDS011;27097;51.738;19.472;2022-09-09T02:24:00;13.07;;;8.77;;
18411;SDS011;27097;51.738;19.472;2022-09-09T02:26:30;14.65;;;8.95;;
18411;SDS011;27097;51.738;19.472;2022-09-09T02:29:02;16.77;;;9.18;;
18411;SDS011;27097;51.738;19.472;2022-09-09T02:31:32;18.65;;;9.27;;
18411;SDS011;27097;51.738;19.472;2022-09-09T02:34:01;16.15;;;9.10;;
18411;SDS011;27097;51.738;19.472;2022-09-09T02:36:31;13.63;;;8.30;;
18411;SDS011;27097;51.738;19.472;2022-09-09T02:39:00;17.58;;;9.55;;
18411;SDS011;27097;51.738;19.472;2022-09-09T02:41:28;15.52;;;9.40;;
18411;SDS011;27097;51.738;19.472;2022-09-09T02:43:59;17.90;;;10.07;;
18411;SDS011;27097;51.738;19.472;2022-09-09T02:46:31;17.85;;;9.45;;
18411;SDS011;27097;51.738;19.472;2022-09-09T02:49:06;17.85;;;10.02;;
18411;SDS011;27097;51.738;19.472;2022-09-09T02:51:39;21.17;;;11.32;;
18411;SDS011;27097;51.738;19.472;2022-09-09T02:54:16;16.73;;;9.50;;
18411;SDS011;27097;51.738;19.472;2022-09-09T02:56:52;18.20;;;9.50;;
18411;SDS011;27097;51.738;19.472;2022-09-09T02:59:21;15.38;;;9.63;;
18411;SDS011;27097;51.738;19.472;2022-09-09T03:01:50;18.73;;;10.05;;
18411;SDS011;27097;51.738;19.472;2022-09-09T03:04:19;19.33;;;10.55;;
18411;SDS011;27097;51.738;19.472;2022-09-09T03:06:46;20.40;;;10.95;;
18411;SDS011;27097;51.738;19.472;2022-09-09T03:09:13;22.05;;;11.00;;
18411;SDS011;27097;51.738;19.472;2022-09-09T03:11:40;20.70;;;9.85;;
18411;SDS011;27097;51.738;19.472;2022-09-09T03:14:07;14.73;;;9.82;;
18411;SDS011;27097;51.738;19.472;2022-09-09T03:16:36;19.02;;;10.35;;
18411;SDS011;27097;51.738;19.472;2022-09-09T03:19:05;14.35;;;10.00;;
18411;SDS011;27097;51.738;19.472;2022-09-09T03:21:32;16.10;;;9.60;;
18411;SDS011;27097;51.738;19.472;2022-09-09T03:23:59;14.63;;;9.95;;
18411;SDS011;27097;51.738;19.472;2022-09-09T03:26:28;18.85;;;10.07;;
18411;SDS011;27097;51.738;19.472;2022-09-09T03:28:56;20.25;;;10.40;;
18411;SDS011;27097;51.738;19.472;2022-09-09T03:31:25;15.10;;;9.82;;
18411;SDS011;27097;51.738;19.472;2022-09-09T03:33:55;17.08;;;10.32;;
18411;SDS011;27097;51.738;19.472;2022-09-09T03:36:24;18.33;;;10.43;;
18411;SDS011;27097;51.738;19.472;2022-09-09T03:38:53;23.52;;;10.70;;
18411;SDS011;27097;51.738;19.472;2022-09-09T03:41:20;16.35;;;9.85;;
18411;SDS011;27097;51.738;19.472;2022-09-09T03:43:48;22.50;;;10.10;;
18411;SDS011;27097;51.738;19.472;2022-09-09T03:46:15;18.92;;;10.90;;
18411;SDS011;27097;51.738;19.472;2022-09-09T03:48:42;15.50;;;9.82;;
18411;SDS011;27097;51.738;19.472;2022-09-09T03:51:10;17.48;;;10.23;;
18411;SDS011;27097;51.738;19.472;2022-09-09T03:53:38;19.52;;;10.48;;
18411;SDS011;27097;51.738;19.472;2022-09-09T03:56:05;16.15;;;10.18;;
18411;SDS011;27097;51.738;19.472;2022-09-09T03:58:33;21.45;;;10.45;;
18411;SDS011;27097;51.738;19.472;2022-09-09T04:01:01;17.25;;;10.27;;
18411;SDS011;27097;51.738;19.472;2022-09-09T04:03:29;20.75;;;10.45;;
18411;SDS011;27097;51.738;19.472;2022-09-09T04:05:57;19.95;;;11.07;;
18411;SDS011;27097;51.738;19.472;2022-09-09T04:08:25;24.25;;;11.13;;
18411;SDS011;27097;51.738;19.472;2022-09-09T04:10:54;19.67;;;11.32;;
18411;SDS011;27097;51.738;19.472;2022-09-09T04:13:23;23.30;;;11.13;;
18411;SDS011;27097;51.738;19.472;2022-09-09T04:15:51;18.27;;;10.75;;
18411;SDS011;27097;51.738;19.472;2022-09-09T04:18:20;22.88;;;11.60;;
18411;SDS011;27097;51.738;19.472;2022-09-09T04:20:47;19.50;;;10.82;;
18411;SDS011;27097;51.738;19.472;2022-09-09T04:23:15;24.15;;;11.57;;
18411;SDS011;27097;51.738;19.472;2022-09-09T04:25:44;19.30;;;11.20;;
18411;SDS011;27097;51.738;19.472;2022-09-09T04:28:13;20.25;;;11.73;;
18411;SDS011;27097;51.738;19.472;2022-09-09T04:30:40;22.25;;;11.63;;
18411;SDS011;27097;51.738;19.472;2022-09-09T04:33:07;21.83;;;11.85;;
18411;SDS011;27097;51.738;19.472;2022-09-09T04:35:36;24.55;;;12.30;;
18411;SDS011;27097;51.738;19.472;2022-09-09T04:38:04;24.50;;;12.05;;
18411;SDS011;27097;51.738;19.472;2022-09-09T04:40:34;24.45;;;12.25;;
18411;SDS011;27097;51.738;19.472;2022-09-09T04:43:02;26.30;;;12.07;;
18411;SDS011;27097;51.738;19.472;2022-09-09T04:45:31;27.67;;;13.02;;
18411;SDS011;27097;51.738;19.472;2022-09-09T04:47:58;26.65;;;12.90;;
18411;SDS011;27097;51.738;19.472;2022-09-09T04:50:25;27.77;;;12.40;;
18411;SDS011;27097;51.738;19.472;2022-09-09T04:52:53;27.45;;;12.50;;
18411;SDS011;27097;51.738;19.472;2022-09-09T04:55:20;24.38;;;12.43;;
18411;SDS011;27097;51.738;19.472;2022-09-09T04:57:47;24.90;;;12.55;;
18411;SDS011;27097;51.738;19.472;2022-09-09T05:00:14;27.40;;;12.90;;
18411;SDS011;27097;51.738;19.472;2022-09-09T05:02:43;22.30;;;11.75;;
18411;SDS011;27097;51.738;19.472;2022-09-09T05:05:10;28.02;;;13.35;;
18411;SDS011;27097;51.738;19.472;2022-09-09T05:07:37;24.15;;;12.73;;
18411;SDS011;27097;51.738;19.472;2022-09-09T05:10:04;27.08;;;13.50;;
18411;SDS011;27097;51.738;19.472;2022-09-09T05:12:31;25.23;;;13.25;;
18411;SDS011;27097;51.738;19.472;2022-09-09T05:14:58;23.95;;;12.40;;
18411;SDS011;27097;51.738;19.472;2022-09-09T05:17:25;24.63;;;12.15;;
18411;SDS011;27097;51.738;19.472;2022-09-09T05:19:54;24.88;;;12.25;;
18411;SDS011;27097;51.738;19.472;2022-09-09T05:22:21;22.45;;;11.80;;
18411;SDS011;27097;51.738;19.472;2022-09-09T05:24:48;23.15;;;11.95;;
18411;SDS011;27097;51.738;19.472;2022-09-09T05:27:16;23.98;;;12.80;;
18411;SDS011;27097;51.738;19.472;2022-09-09T05:29:44;26.70;;;12.50;;
18411;SDS011;27097;51.738;19.472;2022-09-09T05:32:11;22.70;;;12.05;;
18411;SDS011;27097;51.738;19.472;2022-09-09T05:34:40;26.38;;;12.32;;
18411;SDS011;27097;51.738;19.472;2022-09-09T05:37:08;22.88;;;12.18;;
18411;SDS011;27097;51.738;19.472;2022-09-09T05:39:35;25.00;;;12.57;;
18411;SDS011;27097;51.738;19.472;2022-09-09T05:42:03;28.13;;;11.90;;
18411;SDS011;27097;51.738;19.472;2022-09-09T05:44:32;25.88;;;12.10;;
18411;SDS011;27097;51.738;19.472;2022-09-09T05:46:59;22.65;;;11.95;;
18411;SDS011;27097;51.738;19.472;2022-09-09T05:49:26;16.70;;;10.00;;
18411;SDS011;27097;51.738;19.472;2022-09-09T05:51:53;21.42;;;10.65;;
18411;SDS011;27097;51.738;19.472;2022-09-09T05:54:21;20.92;;;10.65;;
18411;SDS011;27097;51.738;19.472;2022-09-09T05:56:48;23.83;;;11.38;;
18411;SDS011;27097;51.738;19.472;2022-09-09T05:59:17;20.73;;;10.10;;
18411;SDS011;27097;51.738;19.472;2022-09-09T06:01:44;20.83;;;9.43;;
18411;SDS011;27097;51.738;19.472;2022-09-09T06:04:11;16.25;;;9.43;;
18411;SDS011;27097;51.738;19.472;2022-09-09T06:06:39;21.52;;;9.68;;
18411;SDS011;27097;51.738;19.472;2022-09-09T06:09:07;16.23;;;9.10;;
18411;SDS011;27097;51.738;19.472;2022-09-09T06:11:38;19.90;;;10.35;;
18411;SDS011;27097;51.738;19.472;2022-09-09T06:14:06;18.92;;;9.02;;
18411;SDS011;27097;51.738;19.472;2022-09-09T06:16:34;21.08;;;10.07;;
18411;SDS011;27097;51.738;19.472;2022-09-09T06:19:02;22.58;;;10.07;;
18411;SDS011;27097;51.738;19.472;2022-09-09T06:21:30;20.73;;;10.10;;
18411;SDS011;27097;51.738;19.472;2022-09-09T06:23:58;23.30;;;9.63;;
18411;SDS011;27097;51.738;19.472;2022-09-09T06:26:26;20.80;;;9.55;;
18411;SDS011;27097;51.738;19.472;2022-09-09T06:28:57;17.10;;;9.95;;
18411;SDS011;27097;51.738;19.472;2022-09-09T06:31:25;24.13;;;10.13;;
18411;SDS011;27097;51.738;19.472;2022-09-09T06:33:55;14.38;;;8.75;;
18411;SDS011;27097;51.738;19.472;2022-09-09T06:36:24;19.33;;;10.65;;
18411;SDS011;27097;51.738;19.472;2022-09-09T06:38:52;20.48;;;9.88;;
18411;SDS011;27097;51.738;19.472;2022-09-09T06:41:19;18.92;;;9.80;;
18411;SDS011;27097;51.738;19.472;2022-09-09T06:43:48;19.00;;;9.27;;
18411;SDS011;27097;51.738;19.472;2022-09-09T06:46:17;17.88;;;8.77;;
18411;SDS011;27097;51.738;19.472;2022-09-09T06:48:45;17.73;;;9.55;;
18411;SDS011;27097;51.738;19.472;2022-09-09T06:51:13;16.73;;;10.02;;
18411;SDS011;27097;51.738;19.472;2022-09-09T06:53:41;15.95;;;9.40;;
18411;SDS011;27097;51.738;19.472;2022-09-09T06:56:20;15.35;;;9.73;;
18411;SDS011;27097;51.738;19.472;2022-09-09T06:58:49;13.15;;;8.82;;
18411;SDS011;27097;51.738;19.472;2022-09-09T07:01:18;17.02;;;9.65;;
18411;SDS011;27097;51.738;19.472;2022-09-09T07:03:47;17.13;;;9.90;;
18411;SDS011;27097;51.738;19.472;2022-09-09T07:06:16;13.38;;;8.57;;
18411;SDS011;27097;51.738;19.472;2022-09-09T07:08:48;14.45;;;9.48;;
18411;SDS011;27097;51.738;19.472;2022-09-09T07:11:16;16.45;;;9.82;;
18411;SDS011;27097;51.738;19.472;2022-09-09T07:13:44;16.63;;;9.45;;
18411;SDS011;27097;51.738;19.472;2022-09-09T07:16:12;14.40;;;8.90;;
18411;SDS011;27097;51.738;19.472;2022-09-09T07:18:41;14.82;;;9.77;;
18411;SDS011;27097;51.738;19.472;2022-09-09T07:21:09;14.40;;;8.48;;
18411;SDS011;27097;51.738;19.472;2022-09-09T07:23:38;13.73;;;9.35;;
18411;SDS011;27097;51.738;19.472;2022-09-09T07:26:07;14.52;;;9.80;;
18411;SDS011;27097;51.738;19.472;2022-09-09T07:28:35;14.70;;;9.05;;
18411;SDS011;27097;51.738;19.472;2022-09-09T07:31:03;13.40;;;7.88;;
18411;SDS011;27097;51.738;19.472;2022-09-09T07:33:32;15.57;;;9.02;;
18411;SDS011;27097;51.738;19.472;2022-09-09T07:36:03;15.35;;;9.30;;
18411;SDS011;27097;51.738;19.472;2022-09-09T07:38:37;14.52;;;9.20;;
18411;SDS011;27097;51.738;19.472;2022-09-09T07:41:06;15.73;;;8.88;;
18411;SDS011;27097;51.738;19.472;2022-09-09T07:43:36;15.85;;;9.45;;
18411;SDS011;27097;51.738;19.472;2022-09-09T07:46:03;11.50;;;7.93;;
18411;SDS011;27097;51.738;19.472;2022-09-09T07:48:31;16.60;;;8.57;;
18411;SDS011;27097;51.738;19.472;2022-09-09T07:51:07;11.68;;;7.97;;
18411;SDS011;27097;51.738;19.472;2022-09-09T07:53:35;13.85;;;8.23;;
18411;SDS011;27097;51.738;19.472;2022-09-09T07:56:03;12.45;;;8.52;;
18411;SDS011;27097;51.738;19.472;2022-09-09T07:58:31;15.40;;;8.68;;
18411;SDS011;27097;51.738;19.472;2022-09-09T08:00:58;11.98;;;8.18;;
18411;SDS011;27097;51.738;19.472;2022-09-09T08:03:25;15.68;;;8.35;;
18411;SDS011;27097;51.738;19.472;2022-09-09T08:05:52;14.88;;;8.77;;
18411;SDS011;27097;51.738;19.472;2022-09-09T08:08:30;13.85;;;8.13;;
18411;SDS011;27097;51.738;19.472;2022-09-09T08:11:03;12.23;;;8.27;;
18411;SDS011;27097;51.738;19.472;2022-09-09T08:13:32;11.10;;;8.18;;
18411;SDS011;27097;51.738;19.472;2022-09-09T08:16:03;14.30;;;8.00;;
18411;SDS011;27097;51.738;19.472;2022-09-09T08:18:31;9.57;;;7.45;;
18411;SDS011;27097;51.738;19.472;2022-09-09T08:21:04;11.30;;;7.63;;
18411;SDS011;27097;51.738;19.472;2022-09-09T08:23:34;10.30;;;7.45;;
18411;SDS011;27097;51.738;19.472;2022-09-09T08:26:05;9.38;;;6.97;;
18411;SDS011;27097;51.738;19.472;2022-09-09T08:28:35;11.68;;;7.35;;
18411;SDS011;27097;51.738;19.472;2022-09-09T08:31:09;11.40;;;7.47;;
18411;SDS011;27097;51.738;19.472;2022-09-09T08:33:38;10.77;;;7.68;;
18411;SDS011;27097;51.738;19.472;2022-09-09T08:36:06;8.88;;;6.93;;
18411;SDS011;27097;51.738;19.472;2022-09-09T08:38:37;7.60;;;6.43;;
18411;SDS011;27097;51.738;19.472;2022-09-09T08:41:13;9.65;;;7.22;;
18411;SDS011;27097;51.738;19.472;2022-09-09T08:43:58;8.82;;;6.45;;
18411;SDS011;27097;51.738;19.472;2022-09-09T08:46:32;9.15;;;6.53;;
18411;SDS011;27097;51.738;19.472;2022-09-09T08:49:05;7.30;;;5.45;;
18411;SDS011;27097;51.738;19.472;2022-09-09T08:51:48;8.93;;;6.13;;
18411;SDS011;27097;51.738;19.472;2022-09-09T08:54:18;8.10;;;6.57;;
18411;SDS011;27097;51.738;19.472;2022-09-09T08:56:44;12.65;;;6.53;;
18411;SDS011;27097;51.738;19.472;2022-09-09T08:59:12;10.75;;;6.20;;
18411;SDS011;27097;51.738;19.472;2022-09-09T09:02:00;10.98;;;6.15;;
18411;SDS011;27097;51.738;19.472;2022-09-09T09:04:42;7.38;;;5.45;;
18411;SDS011;27097;51.738;19.472;2022-09-09T09:07:35;9.50;;;5.85;;
18411;SDS011;27097;51.738;19.472;2022-09-09T09:10:14;10.63;;;5.75;;
18411;SDS011;27097;51.738;19.472;2022-09-09T09:12:51;7.60;;;6.22;;
18411;SDS011;27097;51.738;19.472;2022-09-09T09:15:21;8.02;;;5.70;;
18411;SDS011;27097;51.738;19.472;2022-09-09T09:17:51;8.38;;;5.65;;
18411;SDS011;27097;51.738;19.472;2022-09-09T09:20:18;7.10;;;5.53;;
18411;SDS011;27097;51.738;19.472;2022-09-09T09:22:50;8.52;;;5.50;;
18411;SDS011;27097;51.738;19.472;2022-09-09T09:25:20;8.60;;;5.40;;
18411;SDS011;27097;51.738;19.472;2022-09-09T09:27:49;6.28;;;5.22;;
18411;SDS011;27097;51.738;19.472;2022-09-09T09:30:26;9.48;;;5.55;;
18411;SDS011;27097;51.738;19.472;2022-09-09T09:33:02;7.35;;;5.43;;
18411;SDS011;27097;51.738;19.472;2022-09-09T09:35:32;6.07;;;4.97;;
18411;SDS011;27097;51.738;19.472;2022-09-09T09:37:59;7.22;;;5.15;;
18411;SDS011;27097;51.738;19.472;2022-09-09T09:40:29;7.30;;;5.82;;
18411;SDS011;27097;51.738;19.472;2022-09-09T09:42:56;6.50;;;4.93;;
18411;SDS011;27097;51.738;19.472;2022-09-09T09:45:26;6.68;;;4.75;;
18411;SDS011;27097;51.738;19.472;2022-09-09T09:47:59;7.05;;;5.15;;
18411;SDS011;27097;51.738;19.472;2022-09-09T09:50:28;8.23;;;4.97;;
18411;SDS011;27097;51.738;19.472;2022-09-09T09:52:56;5.78;;;5.05;;
18411;SDS011;27097;51.738;19.472;2022-09-09T09:55:25;8.32;;;5.00;;
18411;SDS011;27097;51.738;19.472;2022-09-09T09:58:01;9.48;;;4.90;;
18411;SDS011;27097;51.738;19.472;2022-09-09T10:00:29;5.97;;;4.70;;
18411;SDS011;27097;51.738;19.472;2022-09-09T10:02:58;7.32;;;4.90;;
18411;SDS011;27097;51.738;19.472;2022-09-09T10:05:27;6.50;;;4.63;;
18411;SDS011;27097;51.738;19.472;2022-09-09T10:08:04;6.05;;;5.10;;
18411;SDS011;27097;51.738;19.472;2022-09-09T10:10:40;7.45;;;4.70;;
18411;SDS011;27097;51.738;19.472;2022-09-09T10:13:18;9.15;;;4.85;;
18411;SDS011;27097;51.738;19.472;2022-09-09T10:15:52;13.63;;;4.65;;
18411;SDS011;27097;51.738;19.472;2022-09-09T10:21:29;17.55;;;7.40;;
18411;SDS011;27097;51.738;19.472;2022-09-09T10:24:21;22.75;;;8.43;;
18411;SDS011;27097;51.738;19.472;2022-09-09T10:27:11;24.40;;;7.97;;
18411;SDS011;27097;51.738;19.472;2022-09-09T10:29:54;35.47;;;8.15;;
18411;SDS011;27097;51.738;19.472;2022-09-09T10:32:33;18.05;;;7.43;;
18411;SDS011;27097;51.738;19.472;2022-09-09T10:35:08;16.40;;;7.05;;
18411;SDS011;27097;51.738;19.472;2022-09-09T10:40:38;14.85;;;6.85;;
18411;SDS011;27097;51.738;19.472;2022-09-09T10:43:12;18.70;;;7.18;;
18411;SDS011;27097;51.738;19.472;2022-09-09T10:45:53;15.30;;;6.80;;
18411;SDS011;27097;51.738;19.472;2022-09-09T10:48:50;14.48;;;6.18;;
18411;SDS011;27097;51.738;19.472;2022-09-09T10:51:55;13.98;;;6.20;;
18411;SDS011;27097;51.738;19.472;2022-09-09T10:54:36;16.33;;;6.22;;
18411;SDS011;27097;51.738;19.472;2022-09-09T10:57:16;12.50;;;5.45;;
18411;SDS011;27097;51.738;19.472;2022-09-09T10:59:53;11.57;;;5.75;;
18411;SDS011;27097;51.738;19.472;2022-09-09T11:02:27;10.55;;;5.70;;
18411;SDS011;27097;51.738;19.472;2022-09-09T11:04:55;12.02;;;5.40;;
18411;SDS011;27097;51.738;19.472;2022-09-09T11:07:28;12.05;;;5.50;;
18411;SDS011;27097;51.738;19.472;2022-09-09T11:10:01;10.18;;;5.57;;
18411;SDS011;27097;51.738;19.472;2022-09-09T11:12:33;13.38;;;5.75;;
18411;SDS011;27097;51.738;19.472;2022-09-09T11:15:04;10.35;;;5.40;;
18411;SDS011;27097;51.738;19.472;2022-09-09T11:17:38;11.38;;;5.85;;
18411;SDS011;27097;51.738;19.472;2022-09-09T11:20:17;11.57;;;5.57;;
18411;SDS011;27097;51.738;19.472;2022-09-09T11:22:46;9.70;;;5.28;;
18411;SDS011;27097;51.738;19.472;2022-09-09T11:25:18;11.65;;;5.30;;
18411;SDS011;27097;51.738;19.472;2022-09-09T11:27:53;8.07;;;5.13;;
18411;SDS011;27097;51.738;19.472;2022-09-09T11:30:30;12.65;;;5.22;;
18411;SDS011;27097;51.738;19.472;2022-09-09T11:33:22;10.93;;;5.05;;
18411;SDS011;27097;51.738;19.472;2022-09-09T11:36:13;9.50;;;5.15;;
18411;SDS011;27097;51.738;19.472;2022-09-09T11:38:52;8.32;;;5.40;;
18411;SDS011;27097;51.738;19.472;2022-09-09T11:41:32;9.98;;;5.00;;
18411;SDS011;27097;51.738;19.472;2022-09-09T11:44:08;9.55;;;5.18;;
18411;SDS011;27097;51.738;19.472;2022-09-09T11:46:40;8.70;;;4.70;;
18411;SDS011;27097;51.738;19.472;2022-09-09T11:51:57;8.40;;;5.05;;
18411;SDS011;27097;51.738;19.472;2022-09-09T11:54:30;7.07;;;4.60;;
18411;SDS011;27097;51.738;19.472;2022-09-09T11:57:00;6.03;;;4.20;;
18411;SDS011;27097;51.738;19.472;2022-09-09T11:59:30;6.90;;;4.32;;
18411;SDS011;27097;51.738;19.472;2022-09-09T12:01:58;6.40;;;4.45;;
18411;SDS011;27097;51.738;19.472;2022-09-09T12:04:32;6.05;;;4.32;;
18411;SDS011;27097;51.738;19.472;2022-09-09T12:07:05;7.30;;;4.63;;
18411;SDS011;27097;51.738;19.472;2022-09-09T12:09:56;5.45;;;4.28;;
18411;SDS011;27097;51.738;19.472;2022-09-09T12:12:28;5.38;;;4.13;;
18411;SDS011;27097;51.738;19.472;2022-09-09T12:17:49;5.85;;;3.88;;
18411;SDS011;27097;51.738;19.472;2022-09-09T12:20:20;5.70;;;3.75;;
18411;SDS011;27097;51.738;19.472;2022-09-09T12:23:11;7.85;;;3.95;;
18411;SDS011;27097;51.738;19.472;2022-09-09T12:26:01;4.85;;;3.85;;
18411;SDS011;27097;51.738;19.472;2022-09-09T12:28:44;6.13;;;4.03;;
18411;SDS011;27097;51.738;19.472;2022-09-09T12:31:17;5.57;;;3.85;;
18411;SDS011;27097;51.738;19.472;2022-09-09T12:33:51;5.65;;;3.63;;
18411;SDS011;27097;51.738;19.472;2022-09-09T12:36:20;5.13;;;3.83;;
18411;SDS011;27097;51.738;19.472;2022-09-09T12:38:51;4.65;;;3.80;;
18411;SDS011;27097;51.738;19.472;2022-09-09T12:41:19;4.85;;;3.67;;
18411;SDS011;27097;51.738;19.472;2022-09-09T12:43:47;4.75;;;3.80;;
18411;SDS011;27097;51.738;19.472;2022-09-09T12:46:17;4.78;;;3.35;;
18411;SDS011;27097;51.738;19.472;2022-09-09T12:48:51;4.35;;;3.67;;
18411;SDS011;27097;51.738;19.472;2022-09-09T12:51:23;4.72;;;3.75;;
18411;SDS011;27097;51.738;19.472;2022-09-09T12:53:53;5.22;;;4.00;;
18411;SDS011;27097;51.738;19.472;2022-09-09T12:56:22;4.75;;;3.63;;
18411;SDS011;27097;51.738;19.472;2022-09-09T12:58:52;4.80;;;4.00;;
18411;SDS011;27097;51.738;19.472;2022-09-09T13:01:22;4.70;;;3.47;;
18411;SDS011;27097;51.738;19.472;2022-09-09T13:03:50;3.90;;;3.50;;
18411;SDS011;27097;51.738;19.472;2022-09-09T13:06:22;6.80;;;3.47;;
18411;SDS011;27097;51.738;19.472;2022-09-09T13:08:51;3.90;;;3.35;;
18411;SDS011;27097;51.738;19.472;2022-09-09T13:11:20;5.88;;;3.53;;
18411;SDS011;27097;51.738;19.472;2022-09-09T13:13:52;3.80;;;3.40;;
18411;SDS011;27097;51.738;19.472;2022-09-09T13:16:21;4.88;;;3.28;;
18411;SDS011;27097;51.738;19.472;2022-09-09T13:18:51;3.80;;;3.38;;
18411;SDS011;27097;51.738;19.472;2022-09-09T13:21:31;4.20;;;3.22;;
18411;SDS011;27097;51.738;19.472;2022-09-09T13:24:00;5.50;;;3.20;;
18411;SDS011;27097;51.738;19.472;2022-09-09T13:26:28;3.63;;;3.17;;
18411;SDS011;27097;51.738;19.472;2022-09-09T13:29:07;3.97;;;3.20;;
18411;SDS011;27097;51.738;19.472;2022-09-09T13:31:43;4.32;;;3.08;;
18411;SDS011;27097;51.738;19.472;2022-09-09T13:34:13;4.75;;;3.22;;
18411;SDS011;27097;51.738;19.472;2022-09-09T13:36:59;4.65;;;3.15;;
18411;SDS011;27097;51.738;19.472;2022-09-09T13:39:30;3.33;;;2.92;;
18411;SDS011;27097;51.738;19.472;2022-09-09T13:41:59;4.25;;;3.08;;
18411;SDS011;27097;51.738;19.472;2022-09-09T13:44:29;4.57;;;3.28;;
18411;SDS011;27097;51.738;19.472;2022-09-09T13:47:02;4.93;;;3.38;;
18411;SDS011;27097;51.738;19.472;2022-09-09T13:49:30;6.82;;;3.10;;
18411;SDS011;27097;51.738;19.472;2022-09-09T13:52:09;4.32;;;3.00;;
18411;SDS011;27097;51.738;19.472;2022-09-09T13:54:38;3.92;;;3.10;;
18411;SDS011;27097;51.738;19.472;2022-09-09T13:57:11;4.63;;;2.92;;
18411;SDS011;27097;51.738;19.472;2022-09-09T13:59:42;4.95;;;3.17;;
18411;SDS011;27097;51.738;19.472;2022-09-09T14:02:09;4.53;;;3.08;;
18411;SDS011;27097;51.738;19.472;2022-09-09T14:04:36;3.58;;;3.08;;
18411;SDS011;27097;51.738;19.472;2022-09-09T14:07:03;5.13;;;3.05;;
18411;SDS011;27097;51.738;19.472;2022-09-09T14:09:31;4.93;;;2.97;;
18411;SDS011;27097;51.738;19.472;2022-09-09T14:11:58;3.13;;;2.83;;
18411;SDS011;27097;51.738;19.472;2022-09-09T14:14:25;3.97;;;2.85;;
18411;SDS011;27097;51.738;19.472;2022-09-09T14:16:52;3.42;;;3.00;;
18411;SDS011;27097;51.738;19.472;2022-09-09T14:19:19;3.10;;;2.80;;
18411;SDS011;27097;51.738;19.472;2022-09-09T14:21:46;4.05;;;3.03;;
18411;SDS011;27097;51.738;19.472;2022-09-09T14:24:12;3.10;;;2.60;;
18411;SDS011;27097;51.738;19.472;2022-09-09T14:26:41;3.67;;;2.78;;
18411;SDS011;27097;51.738;19.472;2022-09-09T14:29:08;3.40;;;2.40;;
18411;SDS011;27097;51.738;19.472;2022-09-09T14:31:35;2.88;;;2.60;;
18411;SDS011;27097;51.738;19.472;2022-09-09T14:34:02;3.20;;;2.90;;
18411;SDS011;27097;51.738;19.472;2022-09-09T14:36:29;3.10;;;2.83;;
18411;SDS011;27097;51.738;19.472;2022-09-09T14:38:56;3.00;;;2.70;;
18411;SDS011;27097;51.738;19.472;2022-09-09T14:41:23;3.03;;;2.72;;
18411;SDS011;27097;51.738;19.472;2022-09-09T14:43:52;3.10;;;2.70;;
18411;SDS011;27097;51.738;19.472;2022-09-09T14:46:19;3.10;;;2.80;;
18411;SDS011;27097;51.738;19.472;2022-09-09T14:48:47;2.75;;;2.55;;
18411;SDS011;27097;51.738;19.472;2022-09-09T14:51:15;3.08;;;2.75;;
18411;SDS011;27097;51.738;19.472;2022-09-09T14:53:45;5.28;;;3.03;;
18411;SDS011;27097;51.738;19.472;2022-09-09T14:56:13;3.40;;;2.80;;
18411;SDS011;27097;51.738;19.472;2022-09-09T14:58:42;3.08;;;2.47;;
18411;SDS011;27097;51.738;19.472;2022-09-09T15:01:11;3.20;;;2.78;;
18411;SDS011;27097;51.738;19.472;2022-09-09T15:03:40;4.30;;;3.05;;